Time;durP1;ratioP1;P1;durP2;ratioP2;P2;SDS_P1;SDS_P2;PMS_P1;PMS_P2;Temp;Humidity;BMP_temperature;BMP_pressure;BME280_temperature;BME280_humidity;BME280_pressure;Samples;Min_cycle;Max_cycle;Signal;HPM_P1;HPM_P2
2022/10/10 00:00:12;;;;;;;3.33;2.43;;;;;;;8.36;87.16;100597.66;5018433;28;20207;-80
2022/10/10 00:02:38;;;;;;;2.67;1.30;;;;;;;8.44;87.03;100610.63;5018337;28;20227;-81
2022/10/10 00:05:05;;;;;;;2.40;1.40;;;;;;;8.63;84.90;100651.25;5018521;28;20207;-82
2022/10/10 00:07:33;;;;;;;2.07;1.40;;;;;;;8.80;84.25;100691.91;5017788;28;20207;-80
2022/10/10 00:10:00;;;;;;;4.70;1.50;;;;;;;8.87;84.71;100704.84;5018218;28;20207;-82
2022/10/10 00:12:26;;;;;;;3.27;1.40;;;;;;;8.93;83.71;100714.38;5018293;28;20226;-81
2022/10/10 00:14:52;;;;;;;2.13;1.20;;;;;;;9.02;82.73;100736.84;5018577;28;20234;-79
2022/10/10 00:17:19;;;;;;;2.03;1.20;;;;;;;9.11;82.51;100755.88;5018683;28;20214;-79
2022/10/10 00:19:45;;;;;;;2.30;1.30;;;;;;;9.20;82.37;100769.72;5018131;28;20219;-81
2022/10/10 00:22:12;;;;;;;2.80;1.30;;;;;;;9.26;82.09;100777.47;5018228;28;20235;-82
2022/10/10 00:24:39;;;;;;;2.60;1.47;;;;;;;9.26;82.30;100785.31;5019069;28;20226;-80
2022/10/10 00:27:06;;;;;;;3.17;1.50;;;;;;;9.23;82.20;100780.09;5018142;28;20701;-82
2022/10/10 00:29:32;;;;;;;3.03;1.40;;;;;;;9.25;82.09;100776.59;5018467;28;20203;-81
2022/10/10 00:31:59;;;;;;;2.93;1.77;;;;;;;9.17;82.20;100773.19;5018513;28;20229;-81
2022/10/10 00:34:25;;;;;;;2.13;1.50;;;;;;;9.17;82.49;100774.94;5018770;28;20219;-81
2022/10/10 00:36:52;;;;;;;1.80;1.60;;;;;;;9.12;82.24;100767.16;5018481;28;20231;-80
2022/10/10 00:39:18;;;;;;;1.93;1.40;;;;;;;9.15;82.17;100768.00;5018514;28;20570;-81
2022/10/10 00:41:46;;;;;;;5.70;1.50;;;;;;;9.14;82.61;100758.47;5021951;28;20239;-79
2022/10/10 00:44:15;;;;;;;2.67;1.30;;;;;;;9.09;82.51;100754.16;5022268;28;20234;-82
2022/10/10 00:46:42;;;;;;;2.03;1.07;;;;;;;9.04;82.75;100748.13;5022548;28;20202;-82
2022/10/10 00:49:14;;;;;;;1.77;1.33;;;;;;;8.99;82.51;100736.88;5022317;28;20207;-80
2022/10/10 00:51:43;;;;;;;2.50;1.30;;;;;;;8.99;82.56;100742.09;5021669;28;20231;-80
2022/10/10 00:54:13;;;;;;;3.90;1.47;;;;;;;9.03;83.28;100722.97;5021869;28;20203;-81
2022/10/10 00:56:43;;;;;;;1.50;1.40;;;;;;;8.94;83.06;100716.97;5021789;28;20232;-80
2022/10/10 00:59:11;;;;;;;2.70;1.30;;;;;;;8.97;83.36;100707.41;5021832;28;20716;-80
2022/10/10 01:01:39;;;;;;;1.57;1.10;;;;;;;8.96;82.56;100709.16;5021367;28;20235;-81
2022/10/10 01:04:06;;;;;;;4.87;1.50;;;;;;;8.94;82.87;100714.34;5021879;28;20208;-80
2022/10/10 01:06:33;;;;;;;2.27;1.53;;;;;;;8.92;82.66;100726.53;5021693;28;20204;-81
2022/10/10 01:09:00;;;;;;;4.03;1.30;;;;;;;8.95;82.01;100734.28;5021266;28;20218;-80
2022/10/10 01:11:48;;;;;;;2.17;1.40;;;;;;;9.06;82.06;100736.84;5020618;28;20234;-82
2022/10/10 01:14:29;;;;;;;1.93;1.30;;;;;;;9.04;82.38;100743.78;5021048;28;20214;-81
2022/10/10 01:17:06;;;;;;;2.43;1.40;;;;;;;9.06;82.00;100746.41;5021111;28;20230;-82
2022/10/10 01:20:05;;;;;;;2.03;1.50;;;;;;;9.00;83.45;100718.66;5020825;28;20699;-83
2022/10/10 01:22:40;;;;;;;3.30;1.40;;;;;;;8.96;84.16;100690.91;5014377;28;20708;-80
2022/10/10 01:25:20;;;;;;;3.00;1.37;;;;;;;8.95;84.71;100655.34;5021218;28;20297;-81
2022/10/10 01:27:51;;;;;;;1.17;1.00;;;;;;;8.91;85.32;100633.66;5021382;28;20217;-80
2022/10/10 01:30:22;;;;;;;3.13;1.53;;;;;;;8.91;85.88;100605.03;5021329;28;20207;-80
2022/10/10 01:32:52;;;;;;;3.40;1.73;;;;;;;8.89;85.34;100604.19;5021158;28;20310;-81
2022/10/10 01:35:40;;;;;;;2.43;1.47;;;;;;;8.87;84.08;100629.38;5020952;28;20231;-81
2022/10/10 01:38:18;;;;;;;5.73;1.20;;;;;;;8.93;83.84;100641.47;5020551;28;20218;-82
2022/10/10 01:40:50;;;;;;;2.67;1.10;;;;;;;8.89;84.21;100650.19;5019845;28;20217;-80
2022/10/10 01:43:18;;;;;;;8.73;1.20;;;;;;;8.88;83.66;100628.50;5020657;28;20235;-80
2022/10/10 01:45:46;;;;;;;2.93;1.20;;;;;;;8.92;83.63;100640.63;5020279;28;20210;-81
2022/10/10 01:48:15;;;;;;;2.30;1.40;;;;;;;8.93;81.60;100689.19;5021169;28;20213;-82
2022/10/10 01:51:06;;;;;;;3.37;1.27;;;;;;;8.97;81.84;100710.84;5020393;28;20208;-81
2022/10/10 01:53:40;;;;;;;5.30;1.63;;;;;;;9.03;80.31;100736.84;5020167;28;20206;-81
2022/10/10 01:56:13;;;;;;;2.83;1.40;;;;;;;9.12;79.32;100773.25;5019756;28;20222;-82
2022/10/10 01:58:57;;;;;;;2.83;1.50;;;;;;;9.22;79.53;100794.00;5020866;28;20199;-81
2022/10/10 02:01:31;;;;;;;1.43;1.33;;;;;;;9.23;79.10;100796.59;5019060;28;20211;-81
2022/10/10 02:04:06;;;;;;;2.33;1.40;;;;;;;9.28;77.37;100839.09;5020962;28;20219;-80
2022/10/10 02:06:41;;;;;;;3.60;1.70;;;;;;;9.40;77.53;100865.94;5019879;28;20213;-82
2022/10/10 02:09:11;;;;;;;2.67;1.40;;;;;;;9.45;76.64;100885.88;5020510;28;20214;-80
2022/10/10 02:11:40;;;;;;;2.27;1.30;;;;;;;9.47;77.62;100880.66;5020034;28;20238;-81
2022/10/10 02:14:11;;;;;;;1.53;1.33;;;;;;;9.49;77.63;100873.69;5020392;28;20203;-82
2022/10/10 02:16:44;;;;;;;3.07;1.20;;;;;;;9.51;77.23;100884.97;5020157;28;20219;-79
2022/10/10 02:19:14;;;;;;;1.83;1.20;;;;;;;9.56;77.71;100851.94;5019965;28;20207;-83
2022/10/10 02:21:42;;;;;;;2.23;1.20;;;;;;;9.56;77.90;100853.69;5019404;28;20233;-82
2022/10/10 02:24:10;;;;;;;2.07;1.47;;;;;;;9.51;79.00;100818.09;5019380;28;20210;-81
2022/10/10 02:26:39;;;;;;;7.27;1.60;;;;;;;9.49;79.35;100788.56;5020178;28;20220;-80
2022/10/10 02:29:09;;;;;;;2.27;1.50;;;;;;;9.48;80.05;100747.75;5019543;28;20203;-80
2022/10/10 02:31:42;;;;;;;2.93;1.70;;;;;;;9.39;79.77;100741.75;5018952;28;20227;-82
2022/10/10 02:34:13;;;;;;;4.10;1.40;;;;;;;9.38;79.49;100735.69;5019353;28;20207;-80
2022/10/10 02:36:42;;;;;;;3.63;1.70;;;;;;;9.32;79.54;100741.81;5019290;28;20230;-80
2022/10/10 02:39:10;;;;;;;2.20;1.27;;;;;;;9.27;79.69;100740.97;5019420;28;20224;-81
2022/10/10 02:41:37;;;;;;;1.97;1.40;;;;;;;9.30;79.50;100743.56;5019129;28;20238;-81
2022/10/10 02:44:04;;;;;;;3.70;1.40;;;;;;;9.27;78.99;100750.53;5019261;28;20218;-81
2022/10/10 02:46:30;;;;;;;2.10;1.47;;;;;;;9.31;78.52;100767.88;5019662;28;20203;-81
2022/10/10 02:49:00;;;;;;;1.63;1.37;;;;;;;9.31;78.60;100765.25;5018730;28;20216;-81
2022/10/10 02:51:27;;;;;;;2.67;1.50;;;;;;;9.31;77.97;100763.50;5019019;28;20228;-82
2022/10/10 02:53:53;;;;;;;2.07;1.40;;;;;;;9.33;78.91;100758.31;5019020;28;20214;-82
2022/10/10 02:56:20;;;;;;;2.37;1.33;;;;;;;9.32;78.67;100757.44;5018220;28;20230;-80
2022/10/10 02:58:46;;;;;;;3.53;1.90;;;;;;;9.33;78.75;100769.56;5018781;28;20208;-82
2022/10/10 03:01:12;;;;;;;2.83;1.50;;;;;;;9.33;77.99;100776.53;5018559;28;20231;-80
2022/10/10 03:03:39;;;;;;;2.03;1.50;;;;;;;9.36;78.22;100773.91;5019220;28;20679;-82
2022/10/10 03:06:07;;;;;;;3.10;1.33;;;;;;;9.29;79.17;100765.28;5019220;28;20208;-81
2022/10/10 03:08:33;;;;;;;2.33;1.67;;;;;;;9.32;78.35;100765.25;5019028;28;20204;-81
2022/10/10 03:11:01;;;;;;;2.30;1.33;;;;;;;9.33;76.62;100800.84;5018809;28;20217;-81
2022/10/10 03:13:28;;;;;;;1.70;1.60;;;;;;;9.44;76.66;100821.63;5018917;28;20228;-82
2022/10/10 03:15:54;;;;;;;2.87;1.50;;;;;;;9.49;76.67;100832.88;5018313;28;20254;-82
2022/10/10 03:18:21;;;;;;;1.80;1.60;;;;;;;9.58;76.20;100844.94;5018649;28;20574;-82
2022/10/10 03:20:51;;;;;;;2.23;1.53;;;;;;;9.51;76.77;100840.66;5018812;28;20215;-79
2022/10/10 03:23:19;;;;;;;1.80;1.30;;;;;;;9.51;76.49;100841.53;5018653;28;20228;-83
2022/10/10 03:25:46;;;;;;;3.47;1.53;;;;;;;9.56;77.43;100833.69;5018777;28;20211;-82
2022/10/10 03:28:13;;;;;;;2.37;1.40;;;;;;;9.53;78.50;100789.38;5018250;28;20602;-82
2022/10/10 03:30:39;;;;;;;2.73;1.43;;;;;;;9.42;78.86;100773.88;5018180;28;20696;-80
2022/10/10 03:33:07;;;;;;;2.90;1.90;;;;;;;9.30;79.32;100760.94;5019095;28;20228;-81
2022/10/10 03:35:34;;;;;;;2.63;1.83;;;;;;;9.32;79.13;100743.56;5018798;28;20218;-81
2022/10/10 03:38:00;;;;;;;1.20;1.10;;;;;;;9.31;78.42;100754.84;5019506;28;20220;-82
2022/10/10 03:40:29;;;;;;;2.00;1.50;;;;;;;9.33;79.47;100734.84;5018582;28;20207;-81
2022/10/10 03:42:56;;;;;;;5.77;1.47;;;;;;;9.31;79.89;100726.19;5018066;28;20231;-81
2022/10/10 03:45:23;;;;;;;5.20;1.47;;;;;;;9.26;79.49;100712.38;5019616;28;20211;-83
2022/10/10 03:47:49;;;;;;;1.83;1.50;;;;;;;9.22;79.52;100713.28;5018552;28;20216;-83
2022/10/10 03:50:16;;;;;;;1.83;1.53;;;;;;;9.20;80.12;100705.47;5018535;28;20204;-81
2022/10/10 03:52:42;;;;;;;3.57;1.87;;;;;;;9.13;80.88;100677.75;5018176;28;20227;-82
2022/10/10 03:55:09;;;;;;;4.20;1.27;;;;;;;9.08;80.75;100667.38;5018360;28;20226;-82
2022/10/10 03:57:37;;;;;;;1.40;1.30;;;;;;;9.11;80.86;100664.72;5018827;28;20254;-81
2022/10/10 04:00:04;;;;;;;5.70;1.63;;;;;;;9.15;80.71;100658.59;5018052;28;20207;-82
2022/10/10 04:02:30;;;;;;;7.03;1.50;;;;;;;9.15;80.86;100652.53;5018495;28;20233;-82
2022/10/10 04:04:57;;;;;;;1.87;1.40;;;;;;;9.08;80.46;100651.75;5017893;28;20207;-81
2022/10/10 04:07:23;;;;;;;3.87;1.40;;;;;;;9.10;80.71;100647.38;5018515;28;20223;-82
2022/10/10 04:09:50;;;;;;;3.43;1.27;;;;;;;9.08;81.31;100641.34;5018411;28;20215;-79
2022/10/10 04:12:16;;;;;;;11.73;2.93;;;;;;;9.11;81.94;100619.59;5017178;28;20721;-81
2022/10/10 04:14:44;;;;;;;3.70;1.40;;;;;;;9.05;82.40;100594.47;5018198;28;20709;-82
2022/10/10 04:17:10;;;;;;;2.53;1.13;;;;;;;9.01;83.07;100564.16;5022166;28;20237;-82
2022/10/10 04:19:37;;;;;;;2.73;1.80;;;;;;;8.97;83.04;100565.06;5022520;28;20204;-81
2022/10/10 04:22:03;;;;;;;1.63;1.30;;;;;;;8.98;82.49;100572.00;5021299;28;20597;-81
2022/10/10 04:24:30;;;;;;;2.77;1.40;;;;;;;8.97;83.05;100567.66;5022781;28;20223;-82
2022/10/10 04:26:56;;;;;;;2.43;1.53;;;;;;;8.97;82.71;100559.84;5022377;28;20208;-80
2022/10/10 04:29:23;;;;;;;2.77;1.47;;;;;;;8.99;83.22;100560.69;5021998;28;20677;-81
2022/10/10 04:31:51;;;;;;;4.00;1.30;;;;;;;8.97;83.21;100553.78;5020868;28;20322;-84
2022/10/10 04:34:17;;;;;;;3.90;1.50;;;;;;;8.91;83.89;100539.94;5021401;28;20203;-82
2022/10/10 04:36:43;;;;;;;2.73;1.40;;;;;;;8.89;83.45;100540.84;5020616;28;20238;-83
2022/10/10 04:39:10;;;;;;;1.77;1.40;;;;;;;8.84;83.53;100532.22;5021283;28;20210;-82
2022/10/10 04:41:36;;;;;;;3.87;1.40;;;;;;;8.82;83.39;100540.06;5021836;28;20235;-82
2022/10/10 04:44:03;;;;;;;2.17;1.30;;;;;;;8.79;83.40;100534.88;5021824;28;20217;-82
2022/10/10 04:46:29;;;;;;;3.73;1.63;;;;;;;8.77;83.85;100534.03;5021395;28;20610;-84
2022/10/10 04:48:57;;;;;;;3.73;1.40;;;;;;;8.78;83.27;100537.47;5021630;28;20684;-84
2022/10/10 04:51:23;;;;;;;4.20;1.60;;;;;;;8.78;82.91;100540.09;5021538;28;20298;-85
2022/10/10 04:53:50;;;;;;;2.53;1.40;;;;;;;8.72;83.14;100546.22;5021500;28;20213;-85
2022/10/10 04:56:16;;;;;;;3.67;1.73;;;;;;;8.69;83.75;100526.28;5020963;28;20224;-85
2022/10/10 04:58:43;;;;;;;9.57;1.57;;;;;;;8.70;83.86;100516.75;5022030;28;20207;-85
2022/10/10 05:01:09;;;;;;;3.30;1.50;;;;;;;8.67;83.43;100514.19;5021152;28;20213;-82
2022/10/10 05:03:35;;;;;;;1.83;1.23;;;;;;;8.64;83.87;100522.00;5021885;28;20221;-84
2022/10/10 05:06:03;;;;;;;4.10;1.30;;;;;;;8.65;82.95;100511.59;5021724;28;20229;-84
2022/10/10 05:08:30;;;;;;;3.90;1.47;;;;;;;8.64;83.06;100525.50;5021359;28;20210;-83
2022/10/10 05:10:56;;;;;;;4.00;1.53;;;;;;;8.65;82.87;100539.34;5020519;28;20208;-84
2022/10/10 05:13:22;;;;;;;2.80;1.63;;;;;;;8.62;83.06;100535.06;5020901;28;20234;-82
2022/10/10 05:15:51;;;;;;;1.80;1.70;;;;;;;8.69;82.60;100539.31;5020460;28;20210;-85
2022/10/10 05:18:18;;;;;;;7.97;2.37;;;;;;;8.68;82.77;100544.50;5020343;28;20231;-85
2022/10/10 05:20:46;;;;;;;3.27;1.70;;;;;;;8.67;82.62;100535.00;5020199;28;20214;-82
2022/10/10 05:23:15;;;;;;;7.93;1.80;;;;;;;8.69;82.99;100518.47;5020061;28;20323;-85
2022/10/10 05:25:43;;;;;;;5.97;1.60;;;;;;;8.66;83.28;100521.13;5020142;28;20208;-83
2022/10/10 05:28:10;;;;;;;3.00;1.67;;;;;;;8.66;82.62;100520.25;5020951;28;20693;-87
2022/10/10 05:30:36;;;;;;;1.73;1.50;;;;;;;8.66;82.33;100539.34;5020622;28;20206;-86
2022/10/10 05:33:03;;;;;;;2.07;1.73;;;;;;;8.64;81.76;100556.72;5020739;28;20230;-85
2022/10/10 05:35:29;;;;;;;2.43;1.73;;;;;;;8.68;81.83;100561.00;5022411;28;20218;-81
2022/10/10 05:37:56;;;;;;;4.97;2.00;;;;;;;8.75;81.33;100567.00;5021133;28;20232;-85
2022/10/10 05:40:24;;;;;;;2.33;1.60;;;;;;;8.72;81.38;100556.63;5023314;28;20228;-82
2022/10/10 05:42:50;;;;;;;1.63;1.37;;;;;;;8.74;80.89;100562.66;5023980;28;20241;-79
2022/10/10 05:45:17;;;;;;;4.67;1.80;;;;;;;8.79;81.39;100568.72;5031072;28;20202;-81
2022/10/10 05:47:43;;;;;;;5.87;2.07;;;;;;;8.81;81.16;100560.88;5028572;28;20207;-79
2022/10/10 05:50:22;;;;;;;2.57;1.60;;;;;;;8.83;80.06;100598.19;5028342;28;20207;-83
2022/10/10 05:52:49;;;;;;;2.07;1.60;;;;;;;8.89;79.18;100621.53;5026584;28;20235;-79
2022/10/10 05:55:16;;;;;;;2.50;1.70;;;;;;;9.00;78.90;100637.06;5029620;28;20207;-79
2022/10/10 05:57:43;;;;;;;2.27;1.77;;;;;;;9.00;78.99;100648.34;5037406;28;20235;-80
2022/10/10 06:00:11;;;;;;;1.90;1.70;;;;;;;9.02;78.67;100654.41;5030135;28;20222;-78
2022/10/10 06:02:37;;;;;;;4.80;1.60;;;;;;;9.06;78.10;100668.28;5032612;28;20231;-81
2022/10/10 06:05:05;;;;;;;2.50;1.60;;;;;;;9.07;77.89;100678.66;5020396;28;20210;-83
2022/10/10 06:07:32;;;;;;;3.20;1.57;;;;;;;9.10;77.99;100689.06;5019775;28;20286;-83
2022/10/10 06:09:58;;;;;;;2.83;1.70;;;;;;;9.14;77.85;100685.53;5035594;28;20202;-81
2022/10/10 06:12:25;;;;;;;2.83;1.40;;;;;;;9.18;77.55;100689.00;5039043;28;20225;-80
2022/10/10 06:14:53;;;;;;;2.10;1.70;;;;;;;9.13;78.26;100683.81;5039585;28;20202;-81
2022/10/10 06:17:19;;;;;;;2.80;1.50;;;;;;;9.15;78.09;100682.03;5033301;28;20218;-80
2022/10/10 06:19:46;;;;;;;2.27;1.37;;;;;;;9.22;78.91;100664.63;5038595;28;20613;-82
2022/10/10 06:22:12;;;;;;;1.97;1.50;;;;;;;9.15;79.20;100640.38;5033299;28;20221;-83
2022/10/10 06:24:39;;;;;;;2.77;1.80;;;;;;;9.15;78.50;100652.53;5037907;28;20202;-79
2022/10/10 06:27:06;;;;;;;2.70;1.57;;;;;;;9.16;78.74;100656.88;5038774;28;20194;-80
2022/10/10 06:29:32;;;;;;;2.50;1.70;;;;;;;9.15;78.88;100649.94;5038612;28;20206;-81
2022/10/10 06:32:00;;;;;;;3.07;1.63;;;;;;;9.20;78.40;100647.31;5037984;28;20222;-85
2022/10/10 06:34:26;;;;;;;4.53;1.67;;;;;;;9.24;78.48;100649.00;5038483;28;20202;-80
2022/10/10 06:36:53;;;;;;;2.17;1.70;;;;;;;9.26;78.69;100663.72;5039239;28;20235;-82
2022/10/10 06:39:19;;;;;;;2.33;1.50;;;;;;;9.25;78.10;100664.59;5036300;28;20209;-83
2022/10/10 06:41:46;;;;;;;2.60;1.80;;;;;;;9.22;78.17;100667.25;5037057;28;20226;-82
2022/10/10 06:44:12;;;;;;;3.10;1.80;;;;;;;9.29;77.35;100684.53;5036890;28;20206;-83
2022/10/10 06:46:38;;;;;;;1.97;1.63;;;;;;;9.30;77.58;100686.25;5038737;28;20217;-81
2022/10/10 06:49:06;;;;;;;2.13;1.63;;;;;;;9.34;77.88;100689.72;5038901;28;20209;-81
2022/10/10 06:51:33;;;;;;;2.00;1.80;;;;;;;9.36;77.77;100689.69;5038319;28;20229;-82
2022/10/10 06:53:59;;;;;;;1.97;1.80;;;;;;;9.45;77.54;100695.66;5037535;28;20201;-79
2022/10/10 06:56:26;;;;;;;4.87;1.60;;;;;;;9.53;77.86;100690.38;5036601;28;20209;-81
2022/10/10 06:58:53;;;;;;;2.87;1.67;;;;;;;9.59;78.01;100685.09;5036251;28;20218;-83
2022/10/10 07:01:21;;;;;;;3.97;2.40;;;;;;;9.59;77.95;100689.44;5036933;28;20213;-83
2022/10/10 07:03:48;;;;;;;2.00;1.50;;;;;;;9.65;78.05;100681.53;5036676;28;20225;-82
2022/10/10 07:06:15;;;;;;;3.03;2.00;;;;;;;9.67;77.32;100683.28;5037074;28;20208;-80
2022/10/10 07:08:42;;;;;;;2.03;1.70;;;;;;;9.72;77.85;100680.63;5036612;28;20567;-82
2022/10/10 07:11:12;;;;;;;3.00;2.13;;;;;;;9.75;77.42;100701.41;5037027;28;20198;-83
2022/10/10 07:13:38;;;;;;;2.60;1.70;;;;;;;9.87;77.42;100695.19;5031249;28;20202;-82
2022/10/10 07:16:05;;;;;;;3.17;1.30;;;;;;;9.92;77.77;100693.41;5035146;28;20194;-87
2022/10/10 07:18:32;;;;;;;2.17;1.60;;;;;;;9.98;77.54;100692.47;5035716;28;20218;-85
2022/10/10 07:21:02;;;;;;;2.30;1.77;;;;;;;10.04;78.05;100676.75;5036315;28;20565;-83
2022/10/10 07:23:31;;;;;;;4.10;2.23;;;;;;;10.05;77.76;100674.13;5035996;28;20215;-82
2022/10/10 07:26:01;;;;;;;3.00;1.93;;;;;;;10.02;78.58;100679.38;5036797;28;20575;-81
2022/10/10 07:28:27;;;;;;;2.50;1.73;;;;;;;10.01;78.15;100672.44;5036156;28;20267;-82
2022/10/10 07:30:59;;;;;;;3.60;1.73;;;;;;;10.09;78.22;100659.31;5035276;28;20224;-81
2022/10/10 07:33:26;;;;;;;3.17;1.70;;;;;;;10.18;77.71;100690.47;5036544;28;20570;-84
2022/10/10 07:35:53;;;;;;;1.80;1.70;;;;;;;10.25;76.79;100706.91;5037065;28;20203;-84
2022/10/10 07:38:20;;;;;;;2.40;1.77;;;;;;;10.32;77.12;100708.56;5036778;28;20251;-83
2022/10/10 07:40:48;;;;;;;2.80;1.77;;;;;;;10.37;76.51;100718.97;5036240;28;20211;-80
2022/10/10 07:43:14;;;;;;;3.47;2.00;;;;;;;10.41;76.98;100726.72;5035915;28;20259;-84
2022/10/10 07:45:41;;;;;;;6.13;2.00;;;;;;;10.46;76.24;100739.69;5036974;28;20586;-83
2022/10/10 07:48:07;;;;;;;1.73;1.60;;;;;;;10.53;76.49;100747.44;5036962;28;20208;-87
2022/10/10 07:50:34;;;;;;;4.00;1.60;;;;;;;10.60;75.99;100739.50;5039512;28;20213;-84
2022/10/10 07:53:01;;;;;;;1.87;1.60;;;;;;;10.64;76.31;100754.25;5040764;28;20742;-83
2022/10/10 07:55:27;;;;;;;1.77;1.50;;;;;;;10.72;76.10;100755.00;5040851;28;20210;-83
2022/10/10 07:57:56;;;;;;;4.40;1.90;;;;;;;10.67;77.07;100726.34;5040487;28;20232;-83
2022/10/10 08:00:23;;;;;;;3.03;1.87;;;;;;;10.66;77.74;100695.03;5039584;28;20215;-82
2022/10/10 08:02:50;;;;;;;5.97;1.90;;;;;;;10.65;77.36;100691.56;5040219;28;20235;-84
2022/10/10 08:05:17;;;;;;;2.10;1.90;;;;;;;10.69;77.31;100664.53;5041103;28;20278;-83
2022/10/10 08:07:44;;;;;;;3.77;1.60;;;;;;;10.70;79.03;100645.38;5040125;28;20204;-82
2022/10/10 08:10:11;;;;;;;1.80;1.70;;;;;;;10.75;78.85;100642.69;5040869;28;20211;-84
2022/10/10 08:12:38;;;;;;;3.43;1.63;;;;;;;10.71;79.52;100605.31;5039924;28;20291;-84
2022/10/10 08:15:07;;;;;;;3.60;1.57;;;;;;;10.64;82.53;100538.41;5041443;28;20203;-83
2022/10/10 08:17:33;;;;;;;2.93;2.00;;;;;;;10.64;82.19;100494.03;5040275;28;20610;-83
2022/10/10 08:20:00;;;;;;;6.30;1.83;;;;;;;10.67;80.94;100516.66;5040595;28;20203;-84
2022/10/10 08:22:26;;;;;;;4.83;1.80;;;;;;;10.68;81.25;100540.13;5040280;28;20223;-83
2022/10/10 08:24:53;;;;;;;2.43;2.10;;;;;;;10.74;80.44;100526.06;5040612;28;20213;-84
2022/10/10 08:27:19;;;;;;;4.47;2.07;;;;;;;10.81;79.71;100539.88;5041048;28;20222;-82
2022/10/10 08:29:46;;;;;;;2.50;2.20;;;;;;;10.83;79.98;100557.25;5041317;28;20234;-83
2022/10/10 08:32:14;;;;;;;2.27;1.70;;;;;;;10.93;79.42;100574.47;5041055;28;20230;-84
2022/10/10 08:34:42;;;;;;;2.67;1.80;;;;;;;11.08;78.38;100611.63;5040177;28;20685;-84
2022/10/10 08:37:08;;;;;;;2.20;2.00;;;;;;;11.12;78.65;100627.25;5040125;28;20215;-84
2022/10/10 08:39:35;;;;;;;4.10;2.17;;;;;;;11.26;77.71;100644.44;5040600;28;20216;-81
2022/10/10 08:42:02;;;;;;;2.60;1.87;;;;;;;11.37;77.61;100654.66;5041023;28;20245;-82
2022/10/10 08:44:37;;;;;;;4.57;1.80;;;;;;;11.47;76.84;100669.28;5041075;28;20214;-84
2022/10/10 08:47:11;;;;;;;3.63;2.40;;;;;;;11.57;76.32;100685.66;5042043;28;20685;-84
2022/10/10 08:49:42;;;;;;;2.00;1.63;;;;;;;11.65;76.09;100705.53;5041257;28;20570;-83
2022/10/10 08:52:16;;;;;;;2.57;2.37;;;;;;;11.73;76.85;100701.03;5040386;28;20231;-85
2022/10/10 08:54:44;;;;;;;3.63;2.53;;;;;;;11.81;76.59;100698.25;5041109;28;20214;-84
2022/10/10 08:57:23;;;;;;;2.47;2.00;;;;;;;11.91;75.25;100705.06;5041205;28;20216;-83
2022/10/10 08:59:54;;;;;;;2.30;2.10;;;;;;;11.97;75.25;100716.28;5040601;28;20218;-80
2022/10/10 09:02:34;;;;;;;2.40;1.80;;;;;;;12.07;75.51;100726.56;5039960;28;20257;-82
2022/10/10 09:05:02;;;;;;;1.97;1.77;;;;;;;12.18;74.93;100755.09;5041403;28;20251;-80
2022/10/10 09:07:46;;;;;;;2.13;1.70;;;;;;;12.23;75.15;100749.75;5040548;28;20320;-83
2022/10/10 09:10:24;;;;;;;3.60;1.83;;;;;;;12.22;75.34;100733.22;5040576;28;20214;-84
2022/10/10 09:13:02;;;;;;;3.47;1.70;;;;;;;12.33;74.24;100753.94;5038047;28;20277;-83
2022/10/10 09:15:33;;;;;;;3.53;2.30;;;;;;;12.43;74.46;100762.47;5039313;28;20206;-80
2022/10/10 09:18:12;;;;;;;2.70;2.17;;;;;;;12.43;73.92;100771.16;5038578;28;20248;-82
2022/10/10 09:20:47;;;;;;;2.60;2.03;;;;;;;12.48;74.46;100760.59;5040388;28;20210;-82
2022/10/10 09:23:21;;;;;;;3.07;2.17;;;;;;;12.50;74.29;100757.03;5039687;28;20226;-84
2022/10/10 09:25:52;;;;;;;2.73;1.90;;;;;;;12.54;73.68;100764.84;5038659;28;20214;-84
2022/10/10 09:28:27;;;;;;;3.80;1.93;;;;;;;12.71;73.36;100795.00;5038248;28;20193;-82
2022/10/10 09:30:58;;;;;;;3.67;2.33;;;;;;;12.73;73.74;100767.91;5038125;28;20198;-83
2022/10/10 09:33:30;;;;;;;2.07;1.90;;;;;;;12.73;73.51;100771.41;5038021;28;20634;-84
2022/10/10 09:36:00;;;;;;;3.00;2.10;;;;;;;12.81;73.53;100761.59;5038885;28;20206;-82
2022/10/10 09:38:33;;;;;;;2.50;2.30;;;;;;;12.88;73.31;100772.78;5037995;28;20718;-80
2022/10/10 09:41:05;;;;;;;5.00;2.03;;;;;;;12.88;72.37;100789.38;5038708;28;20215;-84
2022/10/10 09:43:33;;;;;;;3.17;1.67;;;;;;;12.91;73.06;100783.22;5037543;28;20235;-81
2022/10/10 09:46:00;;;;;;;3.67;2.23;;;;;;;12.92;72.82;100763.94;5040769;28;20206;-81
2022/10/10 09:48:31;;;;;;;2.80;2.60;;;;;;;12.97;72.94;100780.44;5039692;28;20568;-84
2022/10/10 09:50:59;;;;;;;1.90;1.80;;;;;;;13.06;72.60;100787.22;5039842;28;20211;-83
2022/10/10 09:53:26;;;;;;;2.87;2.20;;;;;;;13.17;71.72;100805.31;5039235;28;20258;-80
2022/10/10 09:55:53;;;;;;;13.00;4.33;;;;;;;13.20;72.47;100800.00;5041590;28;20215;-81
2022/10/10 09:58:27;;;;;;;3.13;1.80;;;;;;;13.24;71.53;100820.88;5038192;28;20223;-81
2022/10/10 10:00:54;;;;;;;2.97;2.17;;;;;;;13.36;71.01;100850.34;5039608;28;20588;-80
2022/10/10 10:03:22;;;;;;;6.83;2.30;;;;;;;13.40;72.23;100831.00;5039032;28;20237;-81
2022/10/10 10:05:57;;;;;;;2.20;2.00;;;;;;;13.50;70.42;100864.00;5041155;28;20208;-81
2022/10/10 10:08:27;;;;;;;2.40;2.07;;;;;;;13.57;70.84;100856.84;5039655;28;20205;-81
2022/10/10 10:10:57;;;;;;;3.57;2.00;;;;;;;13.63;70.79;100872.41;5039352;28;20212;-82
2022/10/10 10:13:27;;;;;;;2.90;1.80;;;;;;;13.66;69.88;100867.97;5038823;28;20235;-83
2022/10/10 10:16:00;;;;;;;1.83;1.73;;;;;;;13.78;70.24;100884.31;5039011;28;20218;-82
2022/10/10 10:18:29;;;;;;;1.70;1.60;;;;;;;13.82;70.65;100867.59;5037755;28;20232;-82
2022/10/10 10:21:14;;;;;;;3.63;2.10;;;;;;;13.89;70.53;100866.50;5038558;28;20210;-82
2022/10/10 10:23:44;;;;;;;2.00;1.90;;;;;;;13.97;70.21;100868.94;5039601;28;20238;-82
2022/10/10 10:26:20;;;;;;;2.33;2.00;;;;;;;13.99;70.99;100881.09;5040330;28;20210;-82
2022/10/10 10:28:49;;;;;;;6.43;1.93;;;;;;;14.01;69.67;100886.31;5040026;28;20210;-80
2022/10/10 10:31:24;;;;;;;2.47;1.90;;;;;;;14.09;68.90;100897.47;5039045;28;20225;-81
2022/10/10 10:34:05;;;;;;;5.00;2.23;;;;;;;14.21;68.26;100915.56;5039363;28;20204;-82
2022/10/10 10:36:45;;;;;;;2.77;2.50;;;;;;;14.34;67.96;100923.97;5040077;28;20204;-81
2022/10/10 10:39:24;;;;;;;2.70;2.13;;;;;;;14.46;67.98;100933.28;5039446;28;20231;-81
2022/10/10 10:42:00;;;;;;;4.17;1.93;;;;;;;14.43;68.10;100928.97;5036871;28;20242;-84
2022/10/10 10:44:37;;;;;;;3.37;1.83;;;;;;;14.48;67.99;100941.97;5036486;28;20204;-80
2022/10/10 10:47:21;;;;;;;2.23;1.60;;;;;;;14.61;66.67;100974.09;5036906;28;20259;-83
2022/10/10 10:49:57;;;;;;;3.53;1.90;;;;;;;14.70;65.79;101006.19;5037153;28;20227;-81
2022/10/10 10:52:50;;;;;;;4.17;2.03;;;;;;;14.69;65.01;101036.03;5036969;28;20236;-80
2022/10/10 10:55:28;;;;;;;2.53;2.17;;;;;;;14.74;65.44;101025.38;5036183;28;20213;-82
2022/10/10 10:58:18;;;;;;;3.83;2.00;;;;;;;14.82;66.00;101030.44;5036329;28;20214;-82
2022/10/10 11:00:51;;;;;;;2.00;1.70;;;;;;;14.88;65.91;101025.88;5035703;28;20259;-83
2022/10/10 11:03:31;;;;;;;4.90;2.17;;;;;;;14.92;65.85;101025.78;5036014;28;20228;-82
2022/10/10 11:06:05;;;;;;;3.80;3.07;;;;;;;15.00;65.20;101026.44;5036750;28;20208;-81
2022/10/10 11:08:48;;;;;;;3.90;2.33;;;;;;;15.01;64.58;101008.00;5036817;28;20272;-83
2022/10/10 11:11:41;;;;;;;2.47;1.90;;;;;;;15.06;65.08;101032.41;5036697;28;20204;-82
2022/10/10 11:14:19;;;;;;;3.57;1.90;;;;;;;15.09;65.82;101013.91;5033313;28;20201;-81
2022/10/10 11:16:50;;;;;;;4.67;2.40;;;;;;;15.13;66.16;100983.13;5031771;28;20234;-81
2022/10/10 11:19:25;;;;;;;4.10;2.00;;;;;;;15.22;65.84;100982.88;5030091;28;20235;-82
2022/10/10 11:21:58;;;;;;;4.07;1.97;;;;;;;15.20;65.49;100968.00;5034298;28;20227;-81
2022/10/10 11:24:33;;;;;;;4.33;1.80;;;;;;;15.20;65.58;100975.91;5034665;28;20200;-82
2022/10/10 11:27:07;;;;;;;2.17;1.50;;;;;;;15.31;65.75;100967.72;5030683;28;20200;-81
2022/10/10 11:29:39;;;;;;;4.83;1.80;;;;;;;15.33;65.77;100974.63;5034540;28;20206;-83
2022/10/10 11:32:12;;;;;;;2.87;1.97;;;;;;;15.41;65.57;100974.41;5033875;28;20700;-82
2022/10/10 11:34:44;;;;;;;3.30;2.07;;;;;;;15.52;66.17;100966.16;5029960;28;20582;-80
2022/10/10 11:37:17;;;;;;;1.93;1.73;;;;;;;15.67;64.81;100994.66;5034974;28;20703;-82
2022/10/10 11:39:51;;;;;;;3.30;2.00;;;;;;;15.86;64.89;101003.72;5035012;28;20217;-82